This is the latest recevied weather packets stored in our database for station/object HJ3GNC-15. If no packets are shown the sender has not sent any weather packets the latest 10 day(s).
| Time | Temp. | Humidity | Pressure | Rain* | Wind** | Luminosity | Snow |
|---|---|---|---|---|---|---|---|
| 1777477133 | 18.89° C | 79% | 1012 hPa | 0 mm | - | - | - |
| 1777476189 | 18.33° C | 78% | 1013 hPa | 0 mm | - | - | - |
| 1777475247 | 17.78° C | 78% | 1013 hPa | 0 mm | - | - | - |
| 1777474301 | 17.78° C | 77% | 1013 hPa | 0 mm | - | - | - |
| 1777473358 | 17.78° C | 77% | 1013 hPa | 0 mm | - | - | - |
| 1777472411 | 17.22° C | 78% | 1013 hPa | 0 mm | - | - | - |
| 1777471469 | 17.22° C | 79% | 1013 hPa | 0 mm | - | - | - |
| 1777470523 | 17.22° C | 78% | 1013 hPa | 0 mm | - | - | - |
| 1777469581 | 17.22° C | 78% | 1013 hPa | 0 mm | - | - | - |
| 1777468637 | 16.11° C | 83% | 1013 hPa | 0 mm | - | - | - |
| 1777467686 | 16.11° C | 85% | 1013 hPa | 0 mm | - | - | - |
| 1777466742 | 16.11° C | 83% | 1013 hPa | 0 mm | - | - | - |
| 1777465800 | 15° C | 91% | 1013 hPa | 0 mm | - | - | - |
| 1777464858 | 14.44° C | 92% | 1014 hPa | 0 mm | - | - | - |
| 1777463917 | 14.44° C | 91% | 1014 hPa | 0 mm | - | - | - |
| 1777462975 | 14.44° C | 91% | 1014 hPa | 0 mm | - | - | - |
| 1777462032 | 13.89° C | 93% | 1013 hPa | 0 mm | - | - | - |
| 1777461083 | 13.89° C | 93% | 1013 hPa | 0 mm | - | - | - |
| 1777460132 | 13.89° C | 92% | 1013 hPa | 0 mm | - | - | - |
| 1777459183 | 13.89° C | 92% | 1013 hPa | 0 mm | - | - | - |
| 1777458237 | 13.89° C | 93% | 1013 hPa | 0 mm | - | - | - |
| 1777457282 | 13.89° C | 92% | 1013 hPa | 0 mm | - | - | - |
| 1777456323 | 13.89° C | 92% | 1013 hPa | 0 mm | - | - | - |
| 1777455366 | 13.89° C | 92% | 1013 hPa | 0 mm | - | - | - |
| 1777454370 | 13.89° C | 92% | 1012 hPa | 0 mm | - | - | - |
* Rain latest hour (hover to see other rain measurements)
** Current wind speed in m/s (hover to see current wind gust speed)